Brainerd Lakes Regional Airport Brainerd US
ICAO: KBRD
IATA: BRD
Category: Medium
Scheduled Services: Yes

Elevation: 1232 ft
TransAlt. 18000 ft.

Airport Communications:
ASOS:126.775
MINNEAPOLIS CNTR:118.05
PRINCETON RDO:123.65
CTAF/UNICOM:122.7

KBRD Zoom In..

If you have problems with the map follow the link
https://www.worldairports.se/pages/airport.php?
ICAO=KBRD

Runways:

(A) RW 05 length 6512 ft width 150 ft
---- / hdg 51

(B) RW 16 length 7100 ft width 150 ft
---- / hdg 160

(C) RW 23 length 6512 ft width 150 ft
ILS 109.90 / hdg 231

(D) RW 34 length 7100 ft width 150 ft
ILS 109.70 / hdg 340

Location; KBRD
Day. 21 / Time. 20.53 Zulu
* Altimeter: 29.96
* Temperature: -08° c. -17.6°f.
* Wind from: 170° Speed 21 kn with Gusts up to 29 kn.
Dewpoint: -14° c.
Visibility: 4 Statute Miles.
Clouds: Clear (automated report).
Conditions: Haze.

KBRD 212053Z AUTO 17021G29KT 4SM HZ CLR M08/M14 A2996 RMK AO2 PK WND 19030/2034 SLP176 T10831144 56049


Wind From 170°
Speed 21 kn.

 
 
jpsmedia worldairports.se 2020   terms of use